FMEE

Roland Garros Airport

St Denis, Reunion
METAR FMEE 250830Z VRB03KT 9999 FEW026 30/22 Q1011 NOSIG
Observed Flight Rules
Apr-25 @ 08:30 UTC (14 minutes ago) Visual Flight Rules
Wind Visibility Clouds
Variable at 3 knots 10,000+ meters
  • Few at 2,600' AGL
Temperatures Readings
Current 30°C / 86°F
Dewpoint 22°C / 72°F
Humidity 62%
Altimeter 29.85" Hg
Pressure 1011 hPa
Elevation 25
METAR FMEE 250830Z VRB03KT 9999 FEW026 30/22 Q1011 NOSIG
Observed Flight Rules
Apr-25 @ 08:30 UTC
(14 minutes ago)
VFR
Wind Visibility
Variable at 3 knots 10,000+ meters
Clouds
  • Few at 2,600' AGL
Temperature Dewpoint
30°C / 86°F 22°C / 72°F
Humidity Altimeter Pressure
62% 29.85" Hg 1011 hPa